Time;durP1;ratioP1;P1;durP2;ratioP2;P2;SDS_P1;SDS_P2;PMS_P1;PMS_P2;Temp;Humidity;BMP_temperature;BMP_pressure;BME280_temperature;BME280_humidity;BME280_pressure;Samples;Min_cycle;Max_cycle;Signal;HPM_P1;HPM_P2
2023/10/18 00:01:23;;;;;;;;;;;5.10;81.60;;;;;;5036927;28;19976;-70
2023/10/18 00:03:56;;;;;;;;;;;5.00;81.70;;;;;;5053295;28;19964;-71
2023/10/18 00:06:31;;;;;;;;;;;5.10;81.60;;;;;;5055044;28;19929;-70
2023/10/18 00:11:52;;;;;;;;;;;5.00;81.80;;;;;;5052249;28;19935;-69
2023/10/18 00:14:27;;;;;;;;;;;5.00;81.40;;;;;;5052676;28;20009;-71
2023/10/18 00:17:01;;;;;;;;;;;5.00;81.50;;;;;;5058034;28;19974;-69
2023/10/18 00:19:34;;;;;;;;;;;5.00;81.60;;;;;;5050174;28;20019;-70
2023/10/18 00:22:09;;;;;;;;;;;5.00;81.70;;;;;;5049451;28;19964;-71
2023/10/18 00:24:42;;;;;;;;;;;5.00;81.70;;;;;;5056647;28;19929;-70
2023/10/18 00:27:16;;;;;;;;;;;5.00;81.80;;;;;;5059383;28;19928;-70
2023/10/18 00:29:53;;;;;;;;;;;5.10;81.60;;;;;;5035175;28;20003;-70
2023/10/18 00:32:26;;;;;;;;;;;5.10;81.70;;;;;;5052107;28;19928;-70
2023/10/18 00:35:00;;;;;;;;;;;5.10;81.80;;;;;;5041116;28;19955;-71
2023/10/18 00:37:34;;;;;;;;;;;5.00;81.80;;;;;;5053490;28;19932;-69
2023/10/18 00:40:09;;;;;;;;;;;5.00;81.80;;;;;;5052587;28;19935;-71
2023/10/18 00:42:46;;;;;;;;;;;5.00;81.80;;;;;;5055522;28;19929;-70
2023/10/18 00:45:22;;;;;;;;;;;5.00;81.90;;;;;;5056832;28;19925;-71
2023/10/18 00:47:57;;;;;;;;;;;5.00;81.90;;;;;;5032787;28;19936;-71
2023/10/18 00:50:34;;;;;;;;;;;4.90;82.10;;;;;;5048814;28;19931;-71
2023/10/18 00:53:07;;;;;;;;;;;5.00;82.20;;;;;;5051690;28;19935;-72
2023/10/18 00:55:41;;;;;;;;;;;5.00;82.00;;;;;;5055824;28;19928;-71
2023/10/18 00:58:15;;;;;;;;;;;5.00;82.20;;;;;;5041747;28;19940;-72
2023/10/18 01:00:50;;;;;;;;;;;5.00;82.20;;;;;;5058695;28;19924;-71
2023/10/18 01:03:30;;;;;;;;;;;5.00;82.10;;;;;;5062472;28;19990;-71
2023/10/18 01:06:05;;;;;;;;;;;5.00;82.20;;;;;;5041190;28;19932;-70
2023/10/18 01:08:38;;;;;;;;;;;5.00;82.40;;;;;;5055449;28;19939;-70
2023/10/18 01:11:07;;;;;;;;;;;5.00;82.30;;;;;;5062738;28;19936;-71
2023/10/18 01:13:42;;;;;;;;;;;5.00;82.40;;;;;;5060890;28;19929;-70
2023/10/18 01:16:21;;;;;;;;;;;5.00;82.40;;;;;;5040344;28;19931;-72
2023/10/18 01:18:55;;;;;;;;;;;5.10;82.30;;;;;;5052973;28;19984;-71
2023/10/18 01:21:28;;;;;;;;;;;5.00;82.40;;;;;;5057887;28;20285;-70
2023/10/18 01:24:01;;;;;;;;;;;5.00;82.50;;;;;;5049524;28;20096;-70
2023/10/18 01:26:43;;;;;;;;;;;5.00;82.50;;;;;;5044222;28;19931;-69
2023/10/18 01:29:17;;;;;;;;;;;5.00;82.50;;;;;;5057869;28;19975;-71
2023/10/18 01:31:51;;;;;;;;;;;5.00;82.70;;;;;;5049447;28;19931;-70
2023/10/18 01:34:31;;;;;;;;;;;5.10;82.60;;;;;;5055778;28;19983;-70
2023/10/18 01:37:05;;;;;;;;;;;5.10;82.60;;;;;;5050704;28;19924;-70
2023/10/18 01:39:39;;;;;;;;;;;5.10;82.60;;;;;;5034735;28;20490;-71
2023/10/18 01:42:16;;;;;;;;;;;5.10;82.60;;;;;;5041897;28;20019;-71
2023/10/18 01:44:52;;;;;;;;;;;5.10;82.70;;;;;;5058950;28;19952;-70
2023/10/18 01:47:27;;;;;;;;;;;5.10;82.60;;;;;;5039616;28;19971;-71
2023/10/18 01:50:00;;;;;;;;;;;5.10;82.60;;;;;;5059555;28;19932;-71
2023/10/18 01:52:37;;;;;;;;;;;5.10;82.80;;;;;;5057515;28;20188;-70
2023/10/18 01:55:14;;;;;;;;;;;5.10;82.90;;;;;;5042010;28;19979;-70
2023/10/18 01:57:49;;;;;;;;;;;5.10;82.90;;;;;;5061367;28;19931;-69
2023/10/18 02:00:25;;;;;;;;;;;5.10;83.00;;;;;;5024738;28;19958;-70
2023/10/18 02:03:00;;;;;;;;;;;5.10;82.90;;;;;;5061215;28;20409;-72
2023/10/18 02:05:37;;;;;;;;;;;5.10;82.90;;;;;;5045157;28;19932;-63
2023/10/18 02:08:15;;;;;;;;;;;5.00;83.10;;;;;;5050232;28;19932;-62
2023/10/18 02:10:50;;;;;;;;;;;5.10;82.90;;;;;;5059853;28;19932;-62
2023/10/18 02:13:24;;;;;;;;;;;5.00;83.00;;;;;;5037052;28;19928;-63
2023/10/18 02:16:06;;;;;;;;;;;5.00;83.00;;;;;;5070234;28;19925;-63
2023/10/18 02:18:42;;;;;;;;;;;5.00;83.00;;;;;;5055339;28;19932;-63
2023/10/18 02:21:15;;;;;;;;;;;5.00;82.80;;;;;;5047835;28;19928;-63
2023/10/18 02:23:52;;;;;;;;;;;5.00;82.90;;;;;;5059479;28;19932;-62
2023/10/18 02:26:31;;;;;;;;;;;5.00;82.90;;;;;;5045611;28;20019;-62
2023/10/18 02:29:12;;;;;;;;;;;5.00;82.90;;;;;;5066535;28;19924;-62
2023/10/18 02:31:45;;;;;;;;;;;5.10;83.00;;;;;;5063772;28;19970;-62
2023/10/18 02:34:19;;;;;;;;;;;5.00;82.90;;;;;;5057225;28;19929;-63
2023/10/18 02:36:52;;;;;;;;;;;5.10;82.90;;;;;;5061629;28;19979;-60
2023/10/18 02:39:28;;;;;;;;;;;4.90;82.90;;;;;;5063952;28;19929;-62
2023/10/18 02:42:04;;;;;;;;;;;4.90;83.00;;;;;;5063613;28;19955;-62
2023/10/18 02:44:34;;;;;;;;;;;5.00;83.00;;;;;;5052813;28;19925;-62
2023/10/18 02:47:16;;;;;;;;;;;5.00;82.90;;;;;;5059355;28;20011;-62
2023/10/18 02:49:51;;;;;;;;;;;5.00;82.90;;;;;;5059978;28;20023;-62
2023/10/18 02:52:26;;;;;;;;;;;5.10;82.80;;;;;;5062012;28;20311;-65
2023/10/18 02:55:01;;;;;;;;;;;5.00;82.70;;;;;;5062908;28;19928;-62
2023/10/18 02:57:46;;;;;;;;;;;5.00;82.80;;;;;;5026624;28;19951;-63
2023/10/18 03:00:20;;;;;;;;;;;4.90;82.80;;;;;;5053403;28;19932;-63
2023/10/18 03:02:55;;;;;;;;;;;4.90;82.80;;;;;;5056211;28;19929;-62
2023/10/18 03:05:28;;;;;;;;;;;5.00;82.90;;;;;;5062239;28;19928;-63
2023/10/18 03:08:02;;;;;;;;;;;4.90;83.00;;;;;;5031678;28;19928;-63
2023/10/18 03:10:43;;;;;;;;;;;4.90;83.00;;;;;;5059705;28;19928;-63
2023/10/18 03:13:17;;;;;;;;;;;4.90;82.90;;;;;;5061325;28;19928;-62
2023/10/18 03:16:08;;;;;;;;;;;4.90;83.00;;;;;;5037069;28;19925;-61
2023/10/18 03:18:44;;;;;;;;;;;4.90;83.00;;;;;;5043715;28;19928;-61
2023/10/18 03:21:21;;;;;;;;;;;4.80;82.90;;;;;;5056292;28;19933;-63
2023/10/18 03:23:57;;;;;;;;;;;4.80;83.00;;;;;;5054278;28;19933;-62
2023/10/18 03:26:35;;;;;;;;;;;4.80;83.20;;;;;;5057450;28;19930;-61
2023/10/18 03:29:12;;;;;;;;;;;4.90;83.00;;;;;;5038172;28;19952;-61
2023/10/18 03:31:48;;;;;;;;;;;5.00;83.00;;;;;;5057095;28;19973;-63
2023/10/18 03:34:22;;;;;;;;;;;4.90;82.90;;;;;;5058890;28;20375;-62
2023/10/18 03:36:55;;;;;;;;;;;4.90;83.10;;;;;;5052566;28;20295;-61
2023/10/18 03:39:28;;;;;;;;;;;4.90;83.00;;;;;;5049349;28;20407;-63
2023/10/18 03:42:03;;;;;;;;;;;4.80;83.10;;;;;;5054809;28;19982;-59
2023/10/18 03:44:37;;;;;;;;;;;4.80;83.00;;;;;;5054571;28;20365;-62
2023/10/18 03:47:24;;;;;;;;;;;4.80;83.10;;;;;;5055355;28;20418;-63
2023/10/18 03:49:58;;;;;;;;;;;4.80;83.10;;;;;;5053706;28;19932;-61
2023/10/18 03:52:33;;;;;;;;;;;4.80;83.00;;;;;;5052033;28;19982;-62
2023/10/18 03:55:12;;;;;;;;;;;4.70;83.00;;;;;;5052996;28;20327;-61
2023/10/18 03:57:46;;;;;;;;;;;4.80;83.00;;;;;;5056191;28;20011;-62
2023/10/18 04:00:38;;;;;;;;;;;4.70;83.10;;;;;;5052026;28;19932;-63
2023/10/18 04:03:15;;;;;;;;;;;4.80;83.10;;;;;;5052272;28;19971;-62
2023/10/18 04:05:52;;;;;;;;;;;4.70;83.10;;;;;;5053019;28;19925;-61
2023/10/18 04:08:26;;;;;;;;;;;4.70;83.10;;;;;;5056637;28;19970;-62
2023/10/18 04:11:01;;;;;;;;;;;4.70;83.10;;;;;;5052185;28;19933;-61
2023/10/18 04:13:36;;;;;;;;;;;4.70;83.00;;;;;;5058465;28;19974;-61
2023/10/18 04:16:11;;;;;;;;;;;4.70;83.00;;;;;;5056613;28;20404;-61
2023/10/18 04:18:47;;;;;;;;;;;4.80;83.10;;;;;;5038138;28;19932;-62
2023/10/18 04:21:25;;;;;;;;;;;4.80;83.00;;;;;;5053058;28;20372;-63
2023/10/18 04:23:59;;;;;;;;;;;4.70;83.20;;;;;;5057622;28;19936;-62
2023/10/18 04:26:32;;;;;;;;;;;4.70;83.30;;;;;;5054509;28;20331;-70
2023/10/18 04:29:10;;;;;;;;;;;4.70;83.30;;;;;;5037121;28;20316;-70
2023/10/18 04:31:44;;;;;;;;;;;4.70;83.20;;;;;;5055350;28;20384;-70
2023/10/18 04:34:21;;;;;;;;;;;4.70;83.20;;;;;;5057772;28;19933;-69
2023/10/18 04:36:55;;;;;;;;;;;4.70;83.30;;;;;;5057799;28;19933;-71
2023/10/18 04:39:29;;;;;;;;;;;4.70;83.40;;;;;;5055505;28;19932;-69
2023/10/18 04:42:06;;;;;;;;;;;4.70;83.40;;;;;;5055205;28;20462;-70
2023/10/18 04:44:40;;;;;;;;;;;4.70;83.30;;;;;;5054509;28;20029;-70
2023/10/18 04:47:14;;;;;;;;;;;4.70;83.20;;;;;;5053112;28;20415;-70
2023/10/18 04:50:00;;;;;;;;;;;4.80;83.40;;;;;;5054556;28;20455;-71
2023/10/18 04:52:42;;;;;;;;;;;4.80;83.20;;;;;;5053150;28;19925;-71
2023/10/18 04:55:14;;;;;;;;;;;4.80;83.30;;;;;;5055468;28;19947;-71
2023/10/18 04:57:47;;;;;;;;;;;4.90;83.20;;;;;;5052913;28;19940;-70
2023/10/18 05:00:35;;;;;;;;;;;4.90;83.20;;;;;;5054250;28;19935;-71
2023/10/18 05:03:13;;;;;;;;;;;4.90;83.30;;;;;;5052603;28;19928;-71
2023/10/18 05:05:52;;;;;;;;;;;4.90;83.50;;;;;;5053976;28;19925;-70
2023/10/18 05:08:24;;;;;;;;;;;4.90;83.60;;;;;;5058504;28;20019;-70
2023/10/18 05:11:22;;;;;;;;;;;4.90;83.70;;;;;;5057466;28;19931;-71
2023/10/18 05:13:56;;;;;;;;;;;4.90;83.70;;;;;;5059189;28;19925;-70
2023/10/18 05:16:31;;;;;;;;;;;4.90;83.60;;;;;;5056919;28;20199;-71
2023/10/18 05:19:06;;;;;;;;;;;4.90;83.70;;;;;;5058967;28;19925;-71
2023/10/18 05:21:40;;;;;;;;;;;5.00;83.70;;;;;;5052558;28;20402;-69
2023/10/18 05:24:21;;;;;;;;;;;5.00;83.70;;;;;;5053156;28;19925;-71
2023/10/18 05:26:55;;;;;;;;;;;5.10;83.60;;;;;;5057332;28;19939;-70
2023/10/18 05:29:34;;;;;;;;;;;5.10;83.50;;;;;;5052852;28;20479;-70
2023/10/18 05:32:09;;;;;;;;;;;5.10;83.60;;;;;;5052295;28;19933;-70
2023/10/18 05:34:54;;;;;;;;;;;5.10;83.70;;;;;;5053250;28;19929;-63
2023/10/18 05:37:33;;;;;;;;;;;5.10;83.60;;;;;;5055391;28;19956;-63
2023/10/18 05:43:00;;;;;;;;;;;5.20;83.40;;;;;;5057571;28;19932;-63
2023/10/18 05:45:34;;;;;;;;;;;5.20;83.50;;;;;;5057457;28;19928;-63
2023/10/18 05:48:17;;;;;;;;;;;5.20;83.40;;;;;;5061157;28;19932;-63
2023/10/18 05:50:56;;;;;;;;;;;5.20;83.60;;;;;;5059997;28;19987;-62
2023/10/18 05:53:31;;;;;;;;;;;5.20;83.50;;;;;;5053985;28;20411;-62
2023/10/18 05:56:07;;;;;;;;;;;5.20;83.40;;;;;;5057404;28;20367;-62
2023/10/18 05:58:40;;;;;;;;;;;5.20;83.70;;;;;;5059887;28;19924;-63
2023/10/18 06:01:13;;;;;;;;;;;5.20;83.70;;;;;;5056713;28;19932;-62
2023/10/18 06:03:47;;;;;;;;;;;5.20;83.70;;;;;;5049676;28;19932;-63
2023/10/18 06:06:20;;;;;;;;;;;5.20;83.80;;;;;;5059346;28;19932;-63
2023/10/18 06:08:57;;;;;;;;;;;5.30;83.70;;;;;;5060283;28;19924;-62
2023/10/18 06:11:31;;;;;;;;;;;5.20;83.90;;;;;;5057884;28;19928;-63
2023/10/18 06:14:16;;;;;;;;;;;5.30;83.90;;;;;;5060738;28;19933;-63
2023/10/18 06:16:52;;;;;;;;;;;5.20;83.90;;;;;;5053929;28;19999;-63
2023/10/18 06:19:27;;;;;;;;;;;5.20;84.00;;;;;;5042580;28;19975;-63
2023/10/18 06:22:13;;;;;;;;;;;5.30;83.80;;;;;;5058460;28;20439;-62
2023/10/18 06:24:49;;;;;;;;;;;5.30;84.00;;;;;;5049723;28;20155;-62
2023/10/18 06:27:23;;;;;;;;;;;5.30;84.00;;;;;;5054742;28;20020;-63
2023/10/18 06:29:56;;;;;;;;;;;5.40;84.20;;;;;;5041933;28;19932;-62
2023/10/18 06:32:29;;;;;;;;;;;5.40;83.80;;;;;;5051399;28;19933;-62
2023/10/18 06:35:09;;;;;;;;;;;5.40;84.00;;;;;;5061222;28;19924;-62
2023/10/18 06:37:42;;;;;;;;;;;5.40;83.90;;;;;;5057913;28;19963;-65
2023/10/18 06:40:32;;;;;;;;;;;5.40;83.90;;;;;;5058492;28;19928;-62
2023/10/18 06:43:08;;;;;;;;;;;5.50;83.90;;;;;;5056435;28;20015;-63
2023/10/18 06:45:42;;;;;;;;;;;5.60;83.90;;;;;;5056394;28;19936;-66
2023/10/18 06:48:16;;;;;;;;;;;5.60;83.90;;;;;;5059451;28;19974;-67
2023/10/18 06:50:49;;;;;;;;;;;5.60;84.10;;;;;;5058104;28;19925;-65
2023/10/18 06:53:22;;;;;;;;;;;5.50;83.80;;;;;;5055614;28;20015;-66
2023/10/18 06:55:58;;;;;;;;;;;5.70;84.20;;;;;;5033701;28;20348;-67
2023/10/18 06:58:43;;;;;;;;;;;5.70;83.80;;;;;;5052799;28;19933;-66
2023/10/18 07:01:20;;;;;;;;;;;5.70;83.70;;;;;;5057917;28;19925;-65
2023/10/18 07:03:53;;;;;;;;;;;5.80;83.80;;;;;;5026398;28;20277;-66
2023/10/18 07:06:29;;;;;;;;;;;5.80;83.80;;;;;;5053741;28;20514;-66
2023/10/18 07:09:10;;;;;;;;;;;5.90;83.80;;;;;;5057212;28;19925;-67
2023/10/18 07:11:48;;;;;;;;;;;5.80;83.70;;;;;;5056371;28;19931;-65
2023/10/18 07:14:21;;;;;;;;;;;5.70;84.00;;;;;;5057173;28;20023;-67
2023/10/18 07:16:55;;;;;;;;;;;5.90;84.00;;;;;;5058556;28;19936;-66
2023/10/18 07:19:29;;;;;;;;;;;5.90;83.80;;;;;;5057818;28;19928;-67
2023/10/18 07:22:06;;;;;;;;;;;5.90;84.10;;;;;;5053191;28;19932;-66
2023/10/18 07:24:39;;;;;;;;;;;6.10;84.00;;;;;;5053659;28;19928;-66
2023/10/18 07:27:17;;;;;;;;;;;6.10;83.80;;;;;;5060912;28;19935;-65
2023/10/18 07:29:50;;;;;;;;;;;6.20;83.80;;;;;;5055088;28;19935;-67
2023/10/18 07:32:24;;;;;;;;;;;6.30;83.70;;;;;;5053468;28;20091;-66
2023/10/18 07:35:00;;;;;;;;;;;6.30;83.70;;;;;;5054367;28;19932;-66
2023/10/18 07:37:41;;;;;;;;;;;6.40;83.60;;;;;;5054579;28;19936;-66
2023/10/18 07:40:21;;;;;;;;;;;6.40;83.60;;;;;;5054398;28;20403;-65
2023/10/18 07:42:56;;;;;;;;;;;6.50;83.90;;;;;;5054405;28;20312;-66
2023/10/18 07:45:29;;;;;;;;;;;6.60;83.70;;;;;;5057284;28;19956;-67
2023/10/18 07:48:05;;;;;;;;;;;6.70;83.60;;;;;;5056297;28;19925;-65
2023/10/18 07:50:49;;;;;;;;;;;6.70;83.50;;;;;;5055308;28;19982;-66
2023/10/18 07:53:24;;;;;;;;;;;6.70;83.60;;;;;;5048444;28;19931;-65
2023/10/18 07:56:00;;;;;;;;;;;6.80;83.50;;;;;;5055038;28;19933;-62
2023/10/18 07:58:47;;;;;;;;;;;6.80;83.60;;;;;;5056735;28;20300;-62
2023/10/18 08:01:46;;;;;;;;;;;6.90;83.40;;;;;;5054216;28;19925;-62
2023/10/18 08:04:20;;;;;;;;;;;6.90;83.60;;;;;;5055785;28;20030;-63
2023/10/18 08:06:53;;;;;;;;;;;7.00;83.70;;;;;;5050693;28;20755;-63
2023/10/18 08:09:29;;;;;;;;;;;7.00;83.80;;;;;;5023376;28;19925;-62
2023/10/18 08:12:07;;;;;;;;;;;7.20;83.60;;;;;;5054635;28;19925;-62
2023/10/18 08:14:48;;;;;;;;;;;7.30;83.50;;;;;;5048603;28;19941;-62
2023/10/18 08:17:33;;;;;;;;;;;7.30;83.30;;;;;;5049547;28;19929;-63
2023/10/18 08:20:40;;;;;;;;;;;7.40;83.20;;;;;;5056463;28;19936;-61
2023/10/18 08:23:19;;;;;;;;;;;7.50;83.20;;;;;;5051780;28;20380;-63
2023/10/18 08:26:15;;;;;;;;;;;7.60;83.20;;;;;;5048753;28;20148;-61
2023/10/18 08:28:55;;;;;;;;;;;7.60;83.10;;;;;;5047273;28;19940;-62
2023/10/18 08:31:33;;;;;;;;;;;7.70;82.80;;;;;;5058895;28;19932;-63
2023/10/18 08:34:06;;;;;;;;;;;7.80;83.10;;;;;;5048978;28;19924;-61
2023/10/18 08:36:39;;;;;;;;;;;7.80;83.20;;;;;;5054203;28;19964;-63
2023/10/18 08:39:13;;;;;;;;;;;7.90;83.10;;;;;;5058857;28;19928;-62
2023/10/18 08:41:54;;;;;;;;;;;7.90;82.80;;;;;;5056186;28;19981;-63
2023/10/18 08:44:31;;;;;;;;;;;8.00;82.60;;;;;;5052155;28;19956;-63
2023/10/18 08:47:12;;;;;;;;;;;8.10;82.50;;;;;;5053873;28;19963;-62
2023/10/18 08:49:50;;;;;;;;;;;8.10;82.20;;;;;;5055762;28;19947;-62
2023/10/18 08:52:24;;;;;;;;;;;8.20;82.10;;;;;;5051111;28;20019;-63
2023/10/18 08:55:19;;;;;;;;;;;8.40;82.20;;;;;;5050362;28;19947;-62
2023/10/18 08:57:55;;;;;;;;;;;8.40;81.90;;;;;;5023046;28;20295;-63
2023/10/18 09:03:23;;;;;;;;;;;8.50;81.40;;;;;;5053285;28;19936;-62
2023/10/18 09:06:07;;;;;;;;;;;8.60;80.50;;;;;;5049448;28;19929;-63
2023/10/18 09:08:42;;;;;;;;;;;8.70;81.00;;;;;;5036795;28;20340;-61
2023/10/18 09:11:22;;;;;;;;;;;8.70;80.50;;;;;;5052668;28;20004;-63
2023/10/18 09:14:07;;;;;;;;;;;8.70;80.40;;;;;;5053878;28;19928;-65
2023/10/18 09:16:41;;;;;;;;;;;8.90;80.00;;;;;;5052858;28;20332;-63
2023/10/18 09:19:15;;;;;;;;;;;8.90;79.90;;;;;;5060879;28;20016;-63
2023/10/18 09:21:57;;;;;;;;;;;8.90;80.10;;;;;;5061413;28;20007;-61
2023/10/18 09:24:31;;;;;;;;;;;9.00;79.80;;;;;;5055850;28;19940;-63
2023/10/18 09:27:05;;;;;;;;;;;9.00;79.80;;;;;;5056441;28;19924;-62
2023/10/18 09:29:39;;;;;;;;;;;9.10;79.60;;;;;;5046055;28;19983;-64
2023/10/18 09:32:32;;;;;;;;;;;9.20;79.60;;;;;;5059145;28;20288;-63
2023/10/18 09:35:08;;;;;;;;;;;9.20;79.40;;;;;;5061129;28;20007;-63
2023/10/18 09:37:41;;;;;;;;;;;9.30;79.30;;;;;;5047761;28;20442;-62
2023/10/18 09:40:14;;;;;;;;;;;9.40;79.20;;;;;;5055026;28;19934;-63
2023/10/18 09:42:50;;;;;;;;;;;9.40;79.10;;;;;;5052665;28;19931;-63
2023/10/18 09:45:23;;;;;;;;;;;9.50;79.00;;;;;;5057969;28;20372;-64
2023/10/18 09:47:58;;;;;;;;;;;9.70;77.50;;;;;;5060344;28;19929;-63
2023/10/18 09:50:36;;;;;;;;;;;9.70;77.50;;;;;;5056951;28;19925;-63
2023/10/18 09:53:12;;;;;;;;;;;9.80;77.00;;;;;;5059431;28;19935;-63
2023/10/18 09:55:47;;;;;;;;;;;9.90;76.90;;;;;;5057542;28;19997;-64
2023/10/18 09:58:22;;;;;;;;;;;9.90;76.90;;;;;;5057120;28;19932;-63
2023/10/18 10:01:02;;;;;;;;;;;10.00;76.80;;;;;;5054322;28;20368;-63
2023/10/18 10:03:36;;;;;;;;;;;10.10;76.60;;;;;;5056983;28;20767;-64
2023/10/18 10:06:11;;;;;;;;;;;10.20;76.20;;;;;;5057522;28;19929;-64
2023/10/18 10:08:47;;;;;;;;;;;10.20;76.10;;;;;;5062063;28;19925;-62
2023/10/18 10:11:20;;;;;;;;;;;10.30;76.10;;;;;;5054382;28;19924;-62
2023/10/18 10:13:54;;;;;;;;;;;10.40;75.60;;;;;;5056104;28;20007;-62
2023/10/18 10:16:30;;;;;;;;;;;10.40;75.50;;;;;;5057089;28;19986;-71
2023/10/18 10:19:05;;;;;;;;;;;10.50;74.50;;;;;;5055971;28;19933;-70
2023/10/18 10:21:40;;;;;;;;;;;10.60;74.20;;;;;;5058352;28;20296;-70
2023/10/18 10:24:32;;;;;;;;;;;10.50;73.50;;;;;;5057793;28;19925;-70
2023/10/18 10:27:27;;;;;;;;;;;10.60;73.90;;;;;;5059109;28;20362;-69
2023/10/18 10:30:03;;;;;;;;;;;10.60;72.90;;;;;;5058200;28;19929;-68
2023/10/18 10:32:36;;;;;;;;;;;10.60;73.10;;;;;;5045208;28;19933;-72
2023/10/18 10:35:15;;;;;;;;;;;10.60;73.00;;;;;;5058029;28;19936;-70
2023/10/18 10:37:50;;;;;;;;;;;10.70;72.80;;;;;;5061435;28;19994;-70
2023/10/18 10:40:37;;;;;;;;;;;10.70;72.80;;;;;;5059325;28;19925;-70
2023/10/18 10:43:13;;;;;;;;;;;10.80;72.80;;;;;;5036188;28;19928;-70
2023/10/18 10:45:55;;;;;;;;;;;10.80;72.40;;;;;;5033281;28;19975;-68
2023/10/18 10:48:34;;;;;;;;;;;10.90;72.00;;;;;;5062038;28;20027;-71
2023/10/18 10:51:11;;;;;;;;;;;11.00;71.20;;;;;;5055433;28;19933;-70
2023/10/18 10:53:48;;;;;;;;;;;11.10;71.40;;;;;;5058584;28;19936;-71
2023/10/18 10:56:26;;;;;;;;;;;11.20;71.60;;;;;;5026457;28;19934;-70
2023/10/18 10:59:03;;;;;;;;;;;11.20;71.40;;;;;;5057511;28;19933;-70
2023/10/18 11:02:05;;;;;;;;;;;11.30;71.00;;;;;;5058821;28;19929;-71
2023/10/18 11:04:58;;;;;;;;;;;11.40;70.70;;;;;;5061407;28;19971;-70
2023/10/18 11:07:35;;;;;;;;;;;11.40;71.00;;;;;;5052327;28;19936;-70
2023/10/18 11:10:16;;;;;;;;;;;11.30;71.10;;;;;;5036232;28;19936;-70
2023/10/18 11:12:53;;;;;;;;;;;11.40;71.20;;;;;;5053184;28;19928;-71
2023/10/18 11:15:30;;;;;;;;;;;11.40;70.40;;;;;;5056886;28;20012;-70
2023/10/18 11:18:20;;;;;;;;;;;11.40;69.80;;;;;;5056889;28;19929;-70
2023/10/18 11:21:05;;;;;;;;;;;11.50;69.20;;;;;;5054896;28;19934;-71
2023/10/18 11:23:46;;;;;;;;;;;11.60;69.80;;;;;;5058373;28;20027;-69
2023/10/18 11:26:24;;;;;;;;;;;11.60;69.80;;;;;;5054143;28;19932;-63
2023/10/18 11:28:59;;;;;;;;;;;11.70;69.00;;;;;;5042701;28;20791;-63
2023/10/18 11:31:33;;;;;;;;;;;11.70;69.10;;;;;;5061274;28;19964;-63
2023/10/18 11:34:07;;;;;;;;;;;11.80;68.70;;;;;;5013052;28;19932;-62
2023/10/18 11:36:42;;;;;;;;;;;12.00;68.30;;;;;;5061088;28;19941;-62
2023/10/18 11:39:19;;;;;;;;;;;12.10;68.70;;;;;;5047998;28;19975;-63
2023/10/18 11:41:56;;;;;;;;;;;12.20;68.60;;;;;;5051246;28;19929;-63
2023/10/18 11:44:34;;;;;;;;;;;12.20;68.70;;;;;;5061783;28;19931;-63
2023/10/18 11:47:18;;;;;;;;;;;12.30;67.70;;;;;;5056877;28;19928;-62
2023/10/18 11:49:53;;;;;;;;;;;12.40;68.00;;;;;;5058492;28;19935;-63
2023/10/18 11:52:29;;;;;;;;;;;12.40;67.70;;;;;;5045371;28;20367;-64
2023/10/18 11:55:10;;;;;;;;;;;12.40;67.70;;;;;;5061126;28;20023;-63
2023/10/18 11:57:47;;;;;;;;;;;12.40;67.80;;;;;;5059407;28;19928;-63
2023/10/18 12:00:35;;;;;;;;;;;12.40;68.10;;;;;;5038250;28;19992;-62
2023/10/18 12:03:08;;;;;;;;;;;12.40;67.10;;;;;;5059051;28;19925;-63
2023/10/18 12:05:45;;;;;;;;;;;12.50;67.80;;;;;;5057770;28;19978;-63
2023/10/18 12:08:21;;;;;;;;;;;12.50;67.70;;;;;;5009924;28;19982;-63
2023/10/18 12:10:54;;;;;;;;;;;12.40;67.60;;;;;;5052050;28;20368;-64
2023/10/18 12:13:35;;;;;;;;;;;12.50;67.60;;;;;;5048352;28;20018;-64
2023/10/18 12:16:09;;;;;;;;;;;12.50;67.80;;;;;;5050665;28;19925;-63
2023/10/18 12:18:42;;;;;;;;;;;12.40;68.70;;;;;;5055113;28;19933;-63
2023/10/18 12:21:10;;;;;;;;;;;12.40;68.90;;;;;;5057585;28;19924;-64
2023/10/18 12:23:44;;;;;;;;;;;12.40;68.50;;;;;;5049483;28;20295;-63
2023/10/18 12:26:17;;;;;;;;;;;12.30;68.70;;;;;;5040579;28;19925;-63
2023/10/18 12:28:56;;;;;;;;;;;12.40;68.80;;;;;;5055857;28;19932;-62
2023/10/18 12:31:28;;;;;;;;;;;12.30;68.90;;;;;;5052401;28;20341;-64
2023/10/18 12:34:02;;;;;;;;;;;12.40;68.90;;;;;;5055503;28;20411;-68
2023/10/18 12:36:39;;;;;;;;;;;12.30;69.00;;;;;;5056993;28;19931;-63
2023/10/18 12:39:20;;;;;;;;;;;12.30;68.80;;;;;;5051996;28;19990;-62
2023/10/18 12:41:55;;;;;;;;;;;12.30;68.20;;;;;;5057752;28;19925;-63
2023/10/18 12:44:31;;;;;;;;;;;12.30;68.40;;;;;;5054399;28;20015;-62
2023/10/18 12:47:09;;;;;;;;;;;12.30;67.80;;;;;;5057173;28;19964;-62
2023/10/18 12:49:45;;;;;;;;;;;12.40;67.60;;;;;;5048492;28;19929;-62
2023/10/18 12:55:32;;;;;;;;;;;12.40;67.00;;;;;;5059666;28;20007;-62
2023/10/18 12:58:06;;;;;;;;;;;12.40;67.30;;;;;;5060621;28;20475;-63
2023/10/18 13:00:42;;;;;;;;;;;12.40;67.00;;;;;;5057299;28;19972;-62
2023/10/18 13:03:33;;;;;;;;;;;12.40;67.30;;;;;;5056901;28;19929;-62
2023/10/18 13:06:15;;;;;;;;;;;12.40;67.40;;;;;;5059733;28;20365;-62
2023/10/18 13:08:55;;;;;;;;;;;12.40;67.70;;;;;;5058120;28;19932;-62
2023/10/18 13:11:52;;;;;;;;;;;12.40;67.90;;;;;;5051729;28;19929;-63
2023/10/18 13:14:29;;;;;;;;;;;12.40;67.10;;;;;;5057640;28;20408;-63
2023/10/18 13:17:09;;;;;;;;;;;12.40;67.40;;;;;;5044017;28;20371;-62
2023/10/18 13:19:44;;;;;;;;;;;12.30;66.70;;;;;;5055129;28;19986;-62
2023/10/18 13:22:18;;;;;;;;;;;12.30;67.00;;;;;;5060042;28;20295;-63
2023/10/18 13:24:52;;;;;;;;;;;12.30;66.90;;;;;;5058611;28;19924;-62
2023/10/18 13:27:37;;;;;;;;;;;12.30;67.10;;;;;;5061297;28;19925;-61
2023/10/18 13:30:31;;;;;;;;;;;12.30;67.20;;;;;;5026730;28;19929;-62
2023/10/18 13:33:11;;;;;;;;;;;12.30;67.40;;;;;;5057613;28;19957;-64
2023/10/18 13:35:44;;;;;;;;;;;12.30;67.50;;;;;;5058847;28;24775;-63
2023/10/18 13:38:19;;;;;;;;;;;12.40;67.90;;;;;;5057561;28;19947;-61
2023/10/18 13:40:54;;;;;;;;;;;12.40;67.20;;;;;;5060247;28;19924;-63
2023/10/18 13:43:28;;;;;;;;;;;12.40;67.50;;;;;;5060680;28;20015;-63
2023/10/18 13:46:01;;;;;;;;;;;12.40;67.80;;;;;;5061858;28;19932;-67
2023/10/18 13:48:38;;;;;;;;;;;12.40;68.20;;;;;;5059062;28;19935;-67
2023/10/18 13:51:13;;;;;;;;;;;12.50;68.20;;;;;;5060624;28;19928;-67
2023/10/18 13:53:46;;;;;;;;;;;12.50;68.40;;;;;;5058711;28;19932;-67
2023/10/18 13:56:21;;;;;;;;;;;12.60;68.00;;;;;;5057377;28;19929;-65
2023/10/18 13:58:54;;;;;;;;;;;12.60;67.10;;;;;;5053104;28;19982;-67
2023/10/18 14:01:28;;;;;;;;;;;12.60;67.90;;;;;;5030994;28;19937;-67
2023/10/18 14:04:05;;;;;;;;;;;12.60;67.10;;;;;;5039449;28;20028;-66
2023/10/18 14:06:39;;;;;;;;;;;12.60;67.60;;;;;;5057900;28;20016;-67
2023/10/18 14:09:12;;;;;;;;;;;12.60;67.60;;;;;;5060015;28;19928;-67
2023/10/18 14:11:46;;;;;;;;;;;12.60;68.20;;;;;;5059153;28;19925;-67
2023/10/18 14:14:19;;;;;;;;;;;12.60;68.20;;;;;;5057674;28;19932;-67
2023/10/18 14:16:52;;;;;;;;;;;12.60;68.30;;;;;;5058751;28;19924;-68
2023/10/18 14:19:29;;;;;;;;;;;12.60;68.20;;;;;;5055819;28;20011;-67
2023/10/18 14:22:02;;;;;;;;;;;12.60;67.60;;;;;;5059965;28;20389;-65
2023/10/18 14:24:35;;;;;;;;;;;12.60;68.40;;;;;;5056616;28;19940;-67
2023/10/18 14:27:09;;;;;;;;;;;12.60;68.60;;;;;;5056836;28;20029;-66
2023/10/18 14:29:36;;;;;;;;;;;12.50;68.40;;;;;;5057614;28;19960;-67
2023/10/18 14:32:10;;;;;;;;;;;12.60;68.70;;;;;;5058320;28;19924;-67
2023/10/18 14:34:45;;;;;;;;;;;12.50;68.80;;;;;;5055038;28;19932;-67
2023/10/18 14:37:22;;;;;;;;;;;12.50;68.70;;;;;;5057070;28;19928;-68
2023/10/18 14:39:57;;;;;;;;;;;12.60;68.70;;;;;;5058118;28;19948;-68
2023/10/18 14:42:31;;;;;;;;;;;12.50;68.60;;;;;;5025968;28;20335;-67
2023/10/18 14:45:06;;;;;;;;;;;12.50;68.10;;;;;;5054180;28;20390;-68
2023/10/18 14:47:39;;;;;;;;;;;12.50;68.70;;;;;;5056883;28;19933;-66
2023/10/18 14:50:14;;;;;;;;;;;12.50;68.90;;;;;;5060948;28;19928;-67
2023/10/18 14:52:47;;;;;;;;;;;12.40;68.70;;;;;;5059983;28;20019;-67
2023/10/18 14:55:22;;;;;;;;;;;12.40;68.80;;;;;;5051233;28;19928;-68
2023/10/18 14:57:55;;;;;;;;;;;12.40;69.20;;;;;;5044954;28;19933;-66
2023/10/18 15:00:28;;;;;;;;;;;12.30;69.20;;;;;;5057035;28;19929;-69
2023/10/18 15:03:01;;;;;;;;;;;12.40;69.60;;;;;;5052681;28;19978;-69
2023/10/18 15:05:38;;;;;;;;;;;12.40;69.90;;;;;;5054336;28;19931;-69
2023/10/18 15:08:18;;;;;;;;;;;12.40;69.50;;;;;;5042894;28;19956;-69
2023/10/18 15:10:53;;;;;;;;;;;12.40;69.80;;;;;;5052717;28;19946;-67
2023/10/18 15:13:26;;;;;;;;;;;12.40;69.90;;;;;;5054256;28;19932;-69
2023/10/18 15:15:59;;;;;;;;;;;12.40;70.20;;;;;;5051992;28;20304;-70
2023/10/18 15:18:33;;;;;;;;;;;12.40;70.90;;;;;;5054632;28;20556;-71
2023/10/18 15:21:10;;;;;;;;;;;12.40;70.60;;;;;;5054090;28;19948;-70
2023/10/18 15:23:44;;;;;;;;;;;12.40;70.60;;;;;;5057010;28;19933;-69
2023/10/18 15:26:19;;;;;;;;;;;12.40;70.70;;;;;;5046685;28;21165;-69
2023/10/18 15:28:48;;;;;;;;;;;12.40;70.70;;;;;;5052525;28;20625;-68
2023/10/18 15:31:22;;;;;;;;;;;12.40;70.80;;;;;;5036584;28;19932;-71
2023/10/18 15:33:54;;;;;;;;;;;12.40;70.70;;;;;;5054669;28;19929;-70